EJU66 EDDL-EKCH
Flight info
| Callsign | EJU66 |
|---|---|
| Flight time | 1h 13m |
| Altitude | 37000 |
| Route | MEVEL4T MEVEL Y850 BASUM M170 STADE DCT MEGAR P605 GESKA Z711 MONAK |
| Aircraft | A20N/M-SDE2E3FGHIJ1RWXYZ/LB1 |
Departure
| Time | 2026-05-04 20:32 |
|---|---|
| Airport | Düsseldorf Airport (EDDL) |
Arrival
| Time | 2026-05-04 21:46 |
|---|---|
| Airport | Copenhagen Kastrup Airport (EKCH) |
| Time | Latitude | Longitude | Altitude | Speed | Heading |
|---|---|---|---|---|---|
| 2026-05-04 20:11 | 51.28001 | 6.76157 | 128 ft | 0 kts | 107° |
| 2026-05-04 20:20 | 51.28004 | 6.76142 | 127 ft | 2 kts | 104° |
| 2026-05-04 20:21 | 51.28008 | 6.76117 | 131 ft | 2 kts | 101° |
| 2026-05-04 20:21 | 51.28010 | 6.76091 | 131 ft | 2 kts | 92° |
| 2026-05-04 20:21 | 51.27996 | 6.76051 | 127 ft | 2 kts | 1° |
| 2026-05-04 20:22 | 51.27991 | 6.76050 | 127 ft | 0 kts | 357° |
| 2026-05-04 20:22 | 51.27992 | 6.76050 | 127 ft | 2 kts | 357° |
| 2026-05-04 20:23 | 51.28032 | 6.76047 | 128 ft | 5 kts | 357° |
| 2026-05-04 20:23 | 51.28033 | 6.76047 | 128 ft | 0 kts | 357° |
| 2026-05-04 20:23 | 51.28055 | 6.76046 | 128 ft | 8 kts | 357° |
| 2026-05-04 20:23 | 51.28123 | 6.76030 | 132 ft | 13 kts | 9° |
| 2026-05-04 20:24 | 51.28202 | 6.76172 | 132 ft | 22 kts | 53° |
| 2026-05-04 20:24 | 51.28308 | 6.76394 | 134 ft | 24 kts | 52° |
| 2026-05-04 20:24 | 51.28377 | 6.76536 | 134 ft | 6 kts | 54° |
| 2026-05-04 20:24 | 51.28408 | 6.76605 | 135 ft | 10 kts | 53° |
| 2026-05-04 20:25 | 51.28466 | 6.76724 | 136 ft | 17 kts | 52° |
| 2026-05-04 20:25 | 51.28535 | 6.76870 | 137 ft | 17 kts | 53° |
| 2026-05-04 20:25 | 51.28611 | 6.77031 | 138 ft | 19 kts | 52° |
| 2026-05-04 20:25 | 51.28694 | 6.77200 | 138 ft | 13 kts | 51° |
| 2026-05-04 20:26 | 51.28704 | 6.77222 | 139 ft | 3 kts | 51° |
| 2026-05-04 20:26 | 51.28731 | 6.77279 | 139 ft | 15 kts | 54° |
| 2026-05-04 20:26 | 51.28827 | 6.77484 | 140 ft | 30 kts | 52° |
| 2026-05-04 20:26 | 51.28960 | 6.77763 | 142 ft | 32 kts | 52° |
| 2026-05-04 20:27 | 51.29066 | 6.77982 | 143 ft | 15 kts | 52° |
| 2026-05-04 20:27 | 51.29121 | 6.78100 | 144 ft | 13 kts | 53° |
| 2026-05-04 20:27 | 51.29176 | 6.78214 | 144 ft | 14 kts | 52° |
| 2026-05-04 20:27 | 51.29235 | 6.78339 | 145 ft | 15 kts | 52° |
| 2026-05-04 20:28 | 51.29299 | 6.78474 | 146 ft | 16 kts | 53° |
| 2026-05-04 20:28 | 51.29372 | 6.78574 | 147 ft | 12 kts | 5° |
| 2026-05-04 20:28 | 51.29429 | 6.78569 | 147 ft | 9 kts | 354° |
| 2026-05-04 20:28 | 51.29438 | 6.78568 | 147 ft | 0 kts | 355° |
| 2026-05-04 20:30 | 51.29477 | 6.78563 | 148 ft | 17 kts | 355° |
| 2026-05-04 20:30 | 51.29530 | 6.78477 | 148 ft | 15 kts | 236° |
| 2026-05-04 20:31 | 51.29484 | 6.78399 | 147 ft | 0 kts | 232° |
| 2026-05-04 20:31 | 51.29484 | 6.78398 | 147 ft | 0 kts | 232° |
| 2026-05-04 20:31 | 51.29483 | 6.78395 | 147 ft | 0 kts | 232° |
| 2026-05-04 20:31 | 51.29479 | 6.78387 | 147 ft | 10 kts | 232° |
| 2026-05-04 20:32 | 51.29248 | 6.77901 | 146 ft | 97 kts | 232° |
| 2026-05-04 20:32 | 51.28692 | 6.76727 | 146 ft | 164 kts | 233° |
| 2026-05-04 20:32 | 51.27949 | 6.75185 | 702 ft | 175 kts | 233° |
| 2026-05-04 20:32 | 51.27243 | 6.73690 | 1750 ft | 167 kts | 233° |
| 2026-05-04 20:33 | 51.26523 | 6.72157 | 2515 ft | 180 kts | 234° |
| 2026-05-04 20:33 | 51.25739 | 6.70489 | 3170 ft | 193 kts | 233° |
| 2026-05-04 20:33 | 51.24929 | 6.68767 | 3978 ft | 195 kts | 235° |
| 2026-05-04 20:33 | 51.24443 | 6.66764 | 4782 ft | 197 kts | 268° |
| 2026-05-04 20:34 | 51.24794 | 6.64681 | 5565 ft | 200 kts | 303° |
| 2026-05-04 20:34 | 51.25878 | 6.63311 | 6331 ft | 204 kts | 340° |
| 2026-05-04 20:34 | 51.27294 | 6.63212 | 7080 ft | 210 kts | 15° |
| 2026-05-04 20:34 | 51.28519 | 6.64459 | 7817 ft | 215 kts | 50° |
| 2026-05-04 20:35 | 51.29117 | 6.66635 | 8551 ft | 218 kts | 80° |
| 2026-05-04 20:35 | 51.29531 | 6.69063 | 9011 ft | 237 kts | 60° |
| 2026-05-04 20:35 | 51.30696 | 6.71032 | 9345 ft | 256 kts | 30° |
| 2026-05-04 20:35 | 51.32392 | 6.71888 | 9864 ft | 265 kts | 0° |
| 2026-05-04 20:36 | 51.34239 | 6.71447 | 10431 ft | 278 kts | 343° |
| 2026-05-04 20:36 | 51.36191 | 6.70579 | 10785 ft | 302 kts | 346° |
| 2026-05-04 20:36 | 51.38345 | 6.70006 | 11122 ft | 326 kts | 353° |
| 2026-05-04 20:36 | 51.40664 | 6.69652 | 11618 ft | 341 kts | 355° |
| 2026-05-04 20:37 | 51.43048 | 6.69523 | 12446 ft | 345 kts | 358° |
| 2026-05-04 20:37 | 51.45463 | 6.69514 | 13250 ft | 349 kts | 359° |
| 2026-05-04 20:37 | 51.47905 | 6.69542 | 14030 ft | 353 kts | 359° |
| 2026-05-04 20:37 | 51.50376 | 6.69571 | 14793 ft | 357 kts | 359° |
| 2026-05-04 20:38 | 51.52880 | 6.69592 | 15533 ft | 361 kts | 359° |
| 2026-05-04 20:38 | 51.55410 | 6.69606 | 16255 ft | 365 kts | 359° |
| 2026-05-04 20:38 | 51.57933 | 6.69617 | 16933 ft | 369 kts | 360° |
| 2026-05-04 20:38 | 51.60486 | 6.70228 | 17601 ft | 374 kts | 18° |
| 2026-05-04 20:39 | 51.62807 | 6.72121 | 18240 ft | 380 kts | 36° |
| 2026-05-04 20:39 | 51.64690 | 6.75137 | 18871 ft | 384 kts | 51° |
| 2026-05-04 20:39 | 51.66293 | 6.78598 | 19519 ft | 388 kts | 54° |
| 2026-05-04 20:39 | 51.67872 | 6.82154 | 20118 ft | 392 kts | 54° |
| 2026-05-04 20:40 | 51.69466 | 6.85737 | 20724 ft | 395 kts | 54° |
| 2026-05-04 20:40 | 51.71090 | 6.89344 | 21311 ft | 399 kts | 53° |
| 2026-05-04 20:40 | 51.72737 | 6.92969 | 21882 ft | 403 kts | 53° |
| 2026-05-04 20:40 | 51.74403 | 6.96619 | 22447 ft | 406 kts | 53° |
| 2026-05-04 20:41 | 51.76087 | 7.00305 | 22990 ft | 409 kts | 53° |
| 2026-05-04 20:41 | 51.77782 | 7.04018 | 23511 ft | 413 kts | 53° |
| 2026-05-04 20:41 | 51.79491 | 7.07769 | 24039 ft | 416 kts | 53° |
| 2026-05-04 20:41 | 51.81214 | 7.11554 | 24551 ft | 419 kts | 53° |
| 2026-05-04 20:42 | 51.82946 | 7.15367 | 25047 ft | 422 kts | 53° |
| 2026-05-04 20:42 | 51.84688 | 7.19205 | 25519 ft | 425 kts | 53° |
| 2026-05-04 20:42 | 51.86602 | 7.22871 | 25967 ft | 428 kts | 45° |
| 2026-05-04 20:42 | 51.88633 | 7.26262 | 26398 ft | 431 kts | 45° |
| 2026-05-04 20:43 | 51.90768 | 7.29857 | 26840 ft | 434 kts | 46° |
| 2026-05-04 20:43 | 51.92861 | 7.33397 | 27254 ft | 437 kts | 46° |
| 2026-05-04 20:43 | 51.94945 | 7.36930 | 27652 ft | 440 kts | 46° |
| 2026-05-04 20:43 | 51.97063 | 7.40525 | 28023 ft | 443 kts | 46° |
| 2026-05-04 20:44 | 51.99193 | 7.44143 | 28406 ft | 445 kts | 46° |
| 2026-05-04 20:44 | 52.01335 | 7.47786 | 28764 ft | 447 kts | 46° |
| 2026-05-04 20:44 | 52.02792 | 7.50267 | 28997 ft | 449 kts | 46° |
| 2026-05-04 20:44 | 52.04947 | 7.53941 | 29337 ft | 451 kts | 46° |
| 2026-05-04 20:45 | 52.07089 | 7.57598 | 29661 ft | 453 kts | 46° |
| 2026-05-04 20:45 | 52.09267 | 7.61322 | 29984 ft | 456 kts | 46° |
| 2026-05-04 20:45 | 52.11459 | 7.65052 | 30304 ft | 458 kts | 45° |
| 2026-05-04 20:45 | 52.13692 | 7.68774 | 30625 ft | 460 kts | 45° |
| 2026-05-04 20:46 | 52.15939 | 7.72499 | 30937 ft | 462 kts | 45° |
| 2026-05-04 20:46 | 52.18193 | 7.76243 | 31282 ft | 463 kts | 45° |
| 2026-05-04 20:46 | 52.20435 | 7.80018 | 31693 ft | 463 kts | 46° |
| 2026-05-04 20:46 | 52.22658 | 7.83814 | 32085 ft | 463 kts | 46° |
| 2026-05-04 20:47 | 52.24873 | 7.87612 | 32477 ft | 462 kts | 46° |
| 2026-05-04 20:47 | 52.27082 | 7.91405 | 32870 ft | 461 kts | 46° |
| 2026-05-04 20:47 | 52.29288 | 7.95194 | 33243 ft | 460 kts | 46° |
| 2026-05-04 20:47 | 52.31489 | 7.98977 | 33602 ft | 459 kts | 46° |
| 2026-05-04 20:48 | 52.33685 | 8.02755 | 33935 ft | 458 kts | 46° |
| 2026-05-04 20:48 | 52.35878 | 8.06534 | 34270 ft | 458 kts | 46° |
| 2026-05-04 20:48 | 52.38071 | 8.10317 | 34581 ft | 457 kts | 46° |
| 2026-05-04 20:48 | 52.40256 | 8.14093 | 34883 ft | 457 kts | 46° |
| 2026-05-04 20:49 | 52.42435 | 8.17864 | 35211 ft | 455 kts | 46° |
| 2026-05-04 20:49 | 52.44606 | 8.21628 | 35502 ft | 455 kts | 46° |
| 2026-05-04 20:49 | 52.46777 | 8.25398 | 35782 ft | 454 kts | 46° |
| 2026-05-04 20:49 | 52.48943 | 8.29163 | 36054 ft | 453 kts | 46° |
| 2026-05-04 20:50 | 52.51079 | 8.32884 | 36286 ft | 453 kts | 46° |
| 2026-05-04 20:50 | 52.53239 | 8.36650 | 36509 ft | 453 kts | 46° |
| 2026-05-04 20:50 | 52.55396 | 8.40418 | 36725 ft | 453 kts | 46° |
| 2026-05-04 20:50 | 52.57554 | 8.44194 | 36934 ft | 453 kts | 46° |
| 2026-05-04 20:51 | 52.61874 | 8.51770 | 37000 ft | 452 kts | 46° |
| 2026-05-04 20:51 | 52.66171 | 8.59329 | 37000 ft | 452 kts | 46° |
| 2026-05-04 20:52 | 52.70460 | 8.66896 | 37000 ft | 452 kts | 46° |
| 2026-05-04 20:52 | 52.74788 | 8.74417 | 37000 ft | 452 kts | 43° |
| 2026-05-04 20:53 | 52.79715 | 8.80833 | 37000 ft | 451 kts | 32° |
| 2026-05-04 20:53 | 52.85150 | 8.85903 | 37003 ft | 451 kts | 28° |
| 2026-05-04 20:54 | 52.90658 | 8.90879 | 37007 ft | 452 kts | 28° |
| 2026-05-04 20:54 | 52.96179 | 8.95869 | 37010 ft | 452 kts | 28° |
| 2026-05-04 20:55 | 53.01705 | 9.00863 | 37011 ft | 452 kts | 28° |
| 2026-05-04 20:55 | 53.07228 | 9.05866 | 37012 ft | 452 kts | 28° |
| 2026-05-04 20:56 | 53.12751 | 9.10883 | 37012 ft | 452 kts | 28° |
| 2026-05-04 20:56 | 53.18268 | 9.15911 | 37010 ft | 452 kts | 28° |
| 2026-05-04 20:57 | 53.23782 | 9.20950 | 37008 ft | 452 kts | 28° |
| 2026-05-04 20:57 | 53.29294 | 9.26002 | 37006 ft | 451 kts | 28° |
| 2026-05-04 20:58 | 53.34798 | 9.31063 | 37004 ft | 451 kts | 28° |
| 2026-05-04 20:58 | 53.40292 | 9.36128 | 37002 ft | 451 kts | 28° |
| 2026-05-04 20:59 | 53.45756 | 9.41294 | 36999 ft | 451 kts | 32° |
| 2026-05-04 20:59 | 53.50634 | 9.47873 | 36994 ft | 451 kts | 45° |
| 2026-05-04 21:00 | 53.54644 | 9.55882 | 36991 ft | 451 kts | 52° |
| 2026-05-04 21:00 | 53.58493 | 9.64213 | 36993 ft | 451 kts | 52° |
| 2026-05-04 21:01 | 53.62335 | 9.72567 | 36993 ft | 451 kts | 52° |
| 2026-05-04 21:01 | 53.66157 | 9.80944 | 36994 ft | 451 kts | 52° |
| 2026-05-04 21:02 | 53.69978 | 9.89354 | 36995 ft | 452 kts | 52° |
| 2026-05-04 21:02 | 53.73792 | 9.97778 | 36996 ft | 452 kts | 52° |
| 2026-05-04 21:03 | 53.77605 | 10.06227 | 36998 ft | 452 kts | 52° |
| 2026-05-04 21:03 | 53.81415 | 10.14697 | 37000 ft | 452 kts | 52° |
| 2026-05-04 21:04 | 53.85216 | 10.23178 | 37001 ft | 452 kts | 52° |
| 2026-05-04 21:04 | 53.89017 | 10.31685 | 37003 ft | 453 kts | 52° |
| 2026-05-04 21:05 | 53.92811 | 10.40208 | 37004 ft | 453 kts | 52° |
| 2026-05-04 21:05 | 53.96601 | 10.48750 | 37004 ft | 453 kts | 52° |
| 2026-05-04 21:06 | 54.00387 | 10.57312 | 37004 ft | 453 kts | 53° |
| 2026-05-04 21:06 | 54.04164 | 10.65881 | 37005 ft | 453 kts | 53° |
| 2026-05-04 21:07 | 54.07914 | 10.74420 | 37006 ft | 453 kts | 53° |
| 2026-05-04 21:07 | 54.11682 | 10.83029 | 37005 ft | 453 kts | 53° |
| 2026-05-04 21:08 | 54.15440 | 10.91646 | 37004 ft | 453 kts | 53° |
| 2026-05-04 21:08 | 54.19193 | 11.00280 | 37004 ft | 453 kts | 53° |
| 2026-05-04 21:09 | 54.22942 | 11.08936 | 36997 ft | 452 kts | 53° |
| 2026-05-04 21:09 | 54.24802 | 11.13241 | 36791 ft | 448 kts | 53° |
| 2026-05-04 21:09 | 54.26628 | 11.17474 | 36306 ft | 447 kts | 53° |
| 2026-05-04 21:10 | 54.28472 | 11.21758 | 35676 ft | 447 kts | 53° |
| 2026-05-04 21:10 | 54.30317 | 11.26050 | 34951 ft | 448 kts | 53° |
| 2026-05-04 21:10 | 54.32165 | 11.30356 | 34192 ft | 450 kts | 53° |
| 2026-05-04 21:10 | 54.34019 | 11.34685 | 33431 ft | 451 kts | 53° |
| 2026-05-04 21:11 | 54.35884 | 11.39046 | 32657 ft | 453 kts | 53° |
| 2026-05-04 21:11 | 54.37744 | 11.43404 | 31868 ft | 454 kts | 53° |
| 2026-05-04 21:11 | 54.39613 | 11.47790 | 31060 ft | 456 kts | 53° |
| 2026-05-04 21:11 | 54.41487 | 11.52198 | 30256 ft | 457 kts | 53° |
| 2026-05-04 21:12 | 54.43355 | 11.56597 | 29624 ft | 453 kts | 53° |
| 2026-05-04 21:12 | 54.45202 | 11.60951 | 29033 ft | 449 kts | 53° |
| 2026-05-04 21:12 | 54.47056 | 11.65231 | 28439 ft | 444 kts | 50° |
| 2026-05-04 21:12 | 54.49102 | 11.69187 | 27837 ft | 440 kts | 47° |
| 2026-05-04 21:13 | 54.51150 | 11.73054 | 27250 ft | 436 kts | 47° |
| 2026-05-04 21:13 | 54.53161 | 11.76854 | 26663 ft | 432 kts | 47° |
| 2026-05-04 21:13 | 54.55171 | 11.80666 | 26079 ft | 428 kts | 47° |
| 2026-05-04 21:13 | 54.57162 | 11.84458 | 25495 ft | 425 kts | 47° |
| 2026-05-04 21:14 | 54.59132 | 11.88219 | 24917 ft | 421 kts | 47° |
| 2026-05-04 21:14 | 54.61132 | 11.91865 | 24334 ft | 417 kts | 43° |
| 2026-05-04 21:14 | 54.63352 | 11.95045 | 23755 ft | 413 kts | 35° |
| 2026-05-04 21:14 | 54.65725 | 11.97795 | 23183 ft | 409 kts | 33° |
| 2026-05-04 21:15 | 54.68084 | 12.00508 | 22605 ft | 405 kts | 33° |
| 2026-05-04 21:15 | 54.70415 | 12.03210 | 22038 ft | 402 kts | 33° |
| 2026-05-04 21:15 | 54.72726 | 12.05895 | 21468 ft | 398 kts | 33° |
| 2026-05-04 21:15 | 54.75017 | 12.08555 | 20903 ft | 395 kts | 33° |
| 2026-05-04 21:16 | 54.77290 | 12.11196 | 20342 ft | 392 kts | 33° |
| 2026-05-04 21:16 | 54.79545 | 12.13817 | 19785 ft | 388 kts | 33° |
| 2026-05-04 21:16 | 54.81777 | 12.16414 | 19225 ft | 385 kts | 33° |
| 2026-05-04 21:16 | 54.83992 | 12.18995 | 18671 ft | 382 kts | 33° |
| 2026-05-04 21:17 | 54.86190 | 12.21559 | 18108 ft | 379 kts | 33° |
| 2026-05-04 21:17 | 54.88370 | 12.24106 | 17549 ft | 376 kts | 33° |
| 2026-05-04 21:17 | 54.90527 | 12.26629 | 17010 ft | 373 kts | 33° |
| 2026-05-04 21:17 | 54.92670 | 12.29139 | 16470 ft | 370 kts | 33° |
| 2026-05-04 21:18 | 54.94794 | 12.31630 | 15932 ft | 367 kts | 33° |
| 2026-05-04 21:18 | 54.96875 | 12.34070 | 15415 ft | 364 kts | 33° |
| 2026-05-04 21:18 | 54.98968 | 12.36525 | 14864 ft | 361 kts | 33° |
| 2026-05-04 21:18 | 55.01045 | 12.38963 | 14350 ft | 358 kts | 33° |
| 2026-05-04 21:19 | 55.03084 | 12.41344 | 13948 ft | 344 kts | 33° |
| 2026-05-04 21:19 | 55.05016 | 12.43596 | 13752 ft | 325 kts | 33° |
| 2026-05-04 21:19 | 55.06837 | 12.45722 | 13591 ft | 306 kts | 33° |
| 2026-05-04 21:19 | 55.08558 | 12.47734 | 13417 ft | 289 kts | 33° |
| 2026-05-04 21:20 | 55.10199 | 12.49655 | 13016 ft | 282 kts | 33° |
| 2026-05-04 21:20 | 55.11827 | 12.51561 | 12490 ft | 280 kts | 33° |
| 2026-05-04 21:20 | 55.13436 | 12.53448 | 11961 ft | 278 kts | 33° |
| 2026-05-04 21:20 | 55.15036 | 12.55327 | 11450 ft | 276 kts | 33° |
| 2026-05-04 21:21 | 55.16622 | 12.57190 | 10930 ft | 274 kts | 33° |
| 2026-05-04 21:21 | 55.18197 | 12.59044 | 10431 ft | 272 kts | 33° |
| 2026-05-04 21:21 | 55.19758 | 12.60883 | 9915 ft | 270 kts | 33° |
| 2026-05-04 21:21 | 55.21306 | 12.62708 | 9414 ft | 267 kts | 33° |
| 2026-05-04 21:22 | 55.22841 | 12.64454 | 8915 ft | 265 kts | 27° |
| 2026-05-04 21:22 | 55.24530 | 12.65744 | 8269 ft | 267 kts | 17° |
| 2026-05-04 21:22 | 55.26340 | 12.66748 | 7447 ft | 278 kts | 17° |
| 2026-05-04 21:22 | 55.28178 | 12.67776 | 6865 ft | 277 kts | 17° |
| 2026-05-04 21:23 | 55.30008 | 12.68812 | 6326 ft | 275 kts | 17° |
| 2026-05-04 21:23 | 55.31820 | 12.69843 | 5778 ft | 273 kts | 17° |
| 2026-05-04 21:23 | 55.33615 | 12.70868 | 5242 ft | 271 kts | 17° |
| 2026-05-04 21:23 | 55.35400 | 12.71888 | 4713 ft | 268 kts | 17° |
| 2026-05-04 21:24 | 55.37169 | 12.72899 | 4183 ft | 267 kts | 17° |
| 2026-05-04 21:24 | 55.38925 | 12.73904 | 3683 ft | 263 kts | 17° |
| 2026-05-04 21:24 | 55.40666 | 12.74901 | 3443 ft | 265 kts | 17° |
| 2026-05-04 21:24 | 55.42424 | 12.75908 | 3306 ft | 264 kts | 17° |
| 2026-05-04 21:25 | 55.44149 | 12.76898 | 3177 ft | 264 kts | 17° |
| 2026-05-04 21:25 | 55.45893 | 12.77899 | 3095 ft | 263 kts | 17° |
| 2026-05-04 21:25 | 55.47637 | 12.78901 | 3046 ft | 263 kts | 17° |
| 2026-05-04 21:25 | 55.49375 | 12.79900 | 3035 ft | 263 kts | 17° |
| 2026-05-04 21:26 | 55.51112 | 12.80901 | 3035 ft | 263 kts | 17° |
| 2026-05-04 21:26 | 55.52854 | 12.81904 | 3034 ft | 263 kts | 17° |
| 2026-05-04 21:26 | 55.54593 | 12.82908 | 3034 ft | 263 kts | 17° |
| 2026-05-04 21:26 | 55.56316 | 12.83977 | 3035 ft | 263 kts | 21° |
| 2026-05-04 21:27 | 55.57989 | 12.85190 | 3034 ft | 263 kts | 21° |
| 2026-05-04 21:27 | 55.59684 | 12.86411 | 3037 ft | 263 kts | 21° |
| 2026-05-04 21:27 | 55.61381 | 12.87632 | 3037 ft | 263 kts | 21° |
| 2026-05-04 21:27 | 55.62998 | 12.89151 | 3034 ft | 264 kts | 33° |
| 2026-05-04 21:28 | 55.64425 | 12.91214 | 3035 ft | 265 kts | 41° |
| 2026-05-04 21:28 | 55.65794 | 12.93387 | 3034 ft | 265 kts | 41° |
| 2026-05-04 21:28 | 55.67179 | 12.95557 | 3034 ft | 264 kts | 40° |
| 2026-05-04 21:28 | 55.68563 | 12.97719 | 3038 ft | 265 kts | 40° |
| 2026-05-04 21:29 | 55.69927 | 12.99848 | 3035 ft | 265 kts | 40° |
| 2026-05-04 21:29 | 55.71310 | 13.02010 | 3035 ft | 265 kts | 40° |
| 2026-05-04 21:29 | 55.72869 | 13.03656 | 3035 ft | 263 kts | 15° |
| 2026-05-04 21:29 | 55.74670 | 13.03824 | 3039 ft | 261 kts | 346° |
| 2026-05-04 21:30 | 55.76283 | 13.02455 | 3034 ft | 258 kts | 318° |
| 2026-05-04 21:30 | 55.77318 | 12.99892 | 3038 ft | 257 kts | 290° |
| 2026-05-04 21:30 | 55.77556 | 12.96840 | 2997 ft | 250 kts | 263° |
| 2026-05-04 21:30 | 55.77038 | 12.93963 | 2873 ft | 243 kts | 245° |
| 2026-05-04 21:31 | 55.75623 | 12.88565 | 2282 ft | 240 kts | 245° |
| 2026-05-04 21:31 | 55.74728 | 12.86060 | 2071 ft | 240 kts | 230° |
| 2026-05-04 21:31 | 55.73565 | 12.83933 | 2036 ft | 241 kts | 223° |
| 2026-05-04 21:32 | 55.72314 | 12.81953 | 2033 ft | 240 kts | 222° |
| 2026-05-04 21:32 | 55.71055 | 12.79988 | 2034 ft | 241 kts | 222° |
| 2026-05-04 21:32 | 55.69821 | 12.78068 | 1943 ft | 233 kts | 222° |
| 2026-05-04 21:32 | 55.68599 | 12.76165 | 1621 ft | 234 kts | 222° |
| 2026-05-04 21:33 | 55.67371 | 12.74255 | 1294 ft | 234 kts | 222° |
| 2026-05-04 21:33 | 55.66157 | 12.72366 | 985 ft | 230 kts | 221° |
| 2026-05-04 21:33 | 55.65015 | 12.70589 | 680 ft | 212 kts | 222° |
| 2026-05-04 21:33 | 55.63945 | 12.68933 | 405 ft | 196 kts | 222° |
| 2026-05-04 21:34 | 55.62980 | 12.67430 | 203 ft | 172 kts | 222° |
| 2026-05-04 21:34 | 55.62147 | 12.66154 | 90 ft | 149 kts | 221° |
| 2026-05-04 21:34 | 55.61346 | 12.64918 | 115 ft | 162 kts | 222° |
| 2026-05-04 21:34 | 55.60431 | 12.63481 | 367 ft | 190 kts | 223° |
| 2026-05-04 21:35 | 55.59449 | 12.61904 | 1223 ft | 189 kts | 223° |
| 2026-05-04 21:35 | 55.58513 | 12.60367 | 2332 ft | 186 kts | 224° |
| 2026-05-04 21:35 | 55.57459 | 12.58687 | 2495 ft | 210 kts | 214° |
| 2026-05-04 21:35 | 55.56053 | 12.57849 | 2886 ft | 219 kts | 185° |
| 2026-05-04 21:36 | 55.54548 | 12.57826 | 3015 ft | 215 kts | 174° |
| 2026-05-04 21:36 | 55.53169 | 12.58816 | 3034 ft | 219 kts | 140° |
| 2026-05-04 21:36 | 55.52331 | 12.61023 | 3035 ft | 220 kts | 105° |
| 2026-05-04 21:36 | 55.52263 | 12.63704 | 3036 ft | 221 kts | 84° |
| 2026-05-04 21:37 | 55.52357 | 12.65497 | 3032 ft | 220 kts | 84° |
| 2026-05-04 21:37 | 55.52557 | 12.69030 | 3061 ft | 213 kts | 83° |
| 2026-05-04 21:37 | 55.52725 | 12.71622 | 3035 ft | 214 kts | 83° |
| 2026-05-04 21:37 | 55.52938 | 12.74215 | 3031 ft | 214 kts | 72° |
| 2026-05-04 21:38 | 55.53676 | 12.76469 | 3032 ft | 213 kts | 47° |
| 2026-05-04 21:38 | 55.54847 | 12.78037 | 3035 ft | 212 kts | 29° |
| 2026-05-04 21:38 | 55.56142 | 12.79278 | 3035 ft | 211 kts | 26° |
| 2026-05-04 21:38 | 55.57446 | 12.80476 | 3034 ft | 211 kts | 26° |
| 2026-05-04 21:39 | 55.58750 | 12.81675 | 3032 ft | 211 kts | 27° |
| 2026-05-04 21:39 | 55.60015 | 12.83016 | 3035 ft | 212 kts | 31° |
| 2026-05-04 21:39 | 55.60840 | 12.83936 | 3033 ft | 212 kts | 31° |
| 2026-05-04 21:39 | 55.62087 | 12.85331 | 3022 ft | 210 kts | 31° |
| 2026-05-04 21:40 | 55.63704 | 12.87146 | 2625 ft | 207 kts | 31° |
| 2026-05-04 21:40 | 55.64922 | 12.88513 | 2209 ft | 206 kts | 31° |
| 2026-05-04 21:40 | 55.66221 | 12.89262 | 2046 ft | 189 kts | 358° |
| 2026-05-04 21:40 | 55.67480 | 12.88865 | 2035 ft | 186 kts | 346° |
| 2026-05-04 21:41 | 55.68324 | 12.88549 | 2036 ft | 186 kts | 347° |
| 2026-05-04 21:41 | 55.69585 | 12.88100 | 2037 ft | 185 kts | 347° |
| 2026-05-04 21:41 | 55.70845 | 12.87655 | 2036 ft | 184 kts | 347° |
| 2026-05-04 21:41 | 55.72064 | 12.87034 | 2027 ft | 182 kts | 326° |
| 2026-05-04 21:42 | 55.72727 | 12.84618 | 2042 ft | 170 kts | 266° |
| 2026-05-04 21:42 | 55.72368 | 12.82645 | 2042 ft | 171 kts | 239° |
| 2026-05-04 21:42 | 55.71888 | 12.81489 | 2037 ft | 172 kts | 229° |
| 2026-05-04 21:42 | 55.71045 | 12.79991 | 2036 ft | 171 kts | 223° |
| 2026-05-04 21:43 | 55.70215 | 12.78684 | 1996 ft | 154 kts | 222° |
| 2026-05-04 21:43 | 55.69457 | 12.77496 | 1798 ft | 138 kts | 223° |
| 2026-05-04 21:43 | 55.68739 | 12.76382 | 1630 ft | 137 kts | 223° |
| 2026-05-04 21:43 | 55.68026 | 12.75272 | 1452 ft | 136 kts | 223° |
| 2026-05-04 21:44 | 55.67319 | 12.74172 | 1274 ft | 135 kts | 223° |
| 2026-05-04 21:44 | 55.66610 | 12.73071 | 1095 ft | 135 kts | 223° |
| 2026-05-04 21:44 | 55.65903 | 12.71972 | 917 ft | 134 kts | 222° |
| 2026-05-04 21:44 | 55.65209 | 12.70908 | 734 ft | 130 kts | 224° |
| 2026-05-04 21:45 | 55.64533 | 12.69841 | 573 ft | 130 kts | 223° |
| 2026-05-04 21:45 | 55.63850 | 12.68780 | 398 ft | 130 kts | 222° |
| 2026-05-04 21:45 | 55.63171 | 12.67727 | 214 ft | 130 kts | 223° |
| 2026-05-04 21:45 | 55.62491 | 12.66682 | 41 ft | 129 kts | 222° |
| 2026-05-04 21:46 | 55.61844 | 12.65671 | 22 ft | 116 kts | 219° |
| 2026-05-04 21:46 | 55.61372 | 12.64948 | 20 ft | 60 kts | 224° |
| 2026-05-04 21:46 | 55.61226 | 12.64465 | 19 ft | 21 kts | 251° |
| 2026-05-04 21:46 | 55.61219 | 12.64428 | 21 ft | 3 kts | 251° |
| 2026-05-04 21:47 | 55.61209 | 12.64375 | 19 ft | 6 kts | 251° |
| 2026-05-04 21:47 | 55.61201 | 12.64336 | 20 ft | 2 kts | 250° |
| 2026-05-04 21:47 | 55.61193 | 12.64295 | 20 ft | 5 kts | 250° |
| 2026-05-04 21:47 | 55.61181 | 12.64211 | 20 ft | 8 kts | 273° |
| 2026-05-04 21:48 | 55.61219 | 12.64124 | 21 ft | 10 kts | 334° |
| 2026-05-04 21:48 | 55.61294 | 12.64124 | 21 ft | 12 kts | 32° |
| 2026-05-04 21:48 | 55.61375 | 12.64218 | 21 ft | 15 kts | 33° |
| 2026-05-04 21:48 | 55.61473 | 12.64331 | 23 ft | 18 kts | 32° |
| 2026-05-04 21:49 | 55.61588 | 12.64460 | 21 ft | 21 kts | 34° |
| 2026-05-04 21:49 | 55.61717 | 12.64614 | 22 ft | 24 kts | 33° |
| 2026-05-04 21:49 | 55.61863 | 12.64783 | 21 ft | 26 kts | 32° |
| 2026-05-04 21:49 | 55.62016 | 12.64956 | 22 ft | 27 kts | 32° |
| 2026-05-04 21:50 | 55.62171 | 12.65136 | 19 ft | 22 kts | 33° |
| 2026-05-04 21:50 | 55.62311 | 12.65199 | 21 ft | 22 kts | 356° |
| 2026-05-04 21:50 | 55.62435 | 12.65255 | 19 ft | 18 kts | 80° |
| 2026-05-04 21:50 | 55.62442 | 12.65489 | 19 ft | 19 kts | 87° |
| 2026-05-04 21:51 | 55.62445 | 12.65732 | 18 ft | 15 kts | 88° |
| 2026-05-04 21:51 | 55.62488 | 12.65770 | 18 ft | 8 kts | 351° |
| 2026-05-04 21:51 | 55.62532 | 12.65766 | 18 ft | 0 kts | 0° |